sensor_id;sensor_type;location;lat;lon;timestamp;temperature;humidity
16267;DHT22;8241;48.786;9.250;2023-07-13T00:02:05;23.60;83.90
16267;DHT22;8241;48.786;9.250;2023-07-13T00:04:32;23.50;84.10
16267;DHT22;8241;48.786;9.250;2023-07-13T00:07:01;23.50;83.90
16267;DHT22;8241;48.786;9.250;2023-07-13T00:09:28;23.50;84.30
16267;DHT22;8241;48.786;9.250;2023-07-13T00:11:57;23.40;83.40
16267;DHT22;8241;48.786;9.250;2023-07-13T00:14:25;23.40;82.90
16267;DHT22;8241;48.786;9.250;2023-07-13T00:16:52;23.30;82.90
16267;DHT22;8241;48.786;9.250;2023-07-13T00:19:19;23.30;83.10
16267;DHT22;8241;48.786;9.250;2023-07-13T00:21:46;23.30;84.30
16267;DHT22;8241;48.786;9.250;2023-07-13T00:24:17;23.20;83.80
16267;DHT22;8241;48.786;9.250;2023-07-13T00:26:49;23.20;83.90
16267;DHT22;8241;48.786;9.250;2023-07-13T00:29:16;23.10;84.20
16267;DHT22;8241;48.786;9.250;2023-07-13T00:31:43;23.10;84.30
16267;DHT22;8241;48.786;9.250;2023-07-13T00:34:10;23.00;84.60
16267;DHT22;8241;48.786;9.250;2023-07-13T00:36:37;23.00;84.50
16267;DHT22;8241;48.786;9.250;2023-07-13T00:39:04;23.00;84.70
16267;DHT22;8241;48.786;9.250;2023-07-13T00:41:32;22.90;85.10
16267;DHT22;8241;48.786;9.250;2023-07-13T00:44:00;22.90;85.70
16267;DHT22;8241;48.786;9.250;2023-07-13T00:46:30;22.90;85.40
16267;DHT22;8241;48.786;9.250;2023-07-13T00:49:00;22.90;84.70
16267;DHT22;8241;48.786;9.250;2023-07-13T00:51:31;22.80;85.60
16267;DHT22;8241;48.786;9.250;2023-07-13T00:54:04;22.80;85.30
16267;DHT22;8241;48.786;9.250;2023-07-13T00:56:33;22.80;85.50
16267;DHT22;8241;48.786;9.250;2023-07-13T00:59:03;22.80;85.60
16267;DHT22;8241;48.786;9.250;2023-07-13T01:01:31;22.80;85.30
16267;DHT22;8241;48.786;9.250;2023-07-13T01:03:58;22.80;85.00
16267;DHT22;8241;48.786;9.250;2023-07-13T01:06:25;22.70;84.80
16267;DHT22;8241;48.786;9.250;2023-07-13T01:08:52;22.70;84.60
16267;DHT22;8241;48.786;9.250;2023-07-13T01:11:20;22.70;85.40
16267;DHT22;8241;48.786;9.250;2023-07-13T01:13:49;22.60;86.60
16267;DHT22;8241;48.786;9.250;2023-07-13T01:16:24;22.70;86.80
16267;DHT22;8241;48.786;9.250;2023-07-13T01:18:51;22.70;85.60
16267;DHT22;8241;48.786;9.250;2023-07-13T01:21:19;22.60;85.60
16267;DHT22;8241;48.786;9.250;2023-07-13T01:23:46;22.60;85.80
16267;DHT22;8241;48.786;9.250;2023-07-13T01:26:14;22.50;85.70
16267;DHT22;8241;48.786;9.250;2023-07-13T01:28:40;22.50;86.20
16267;DHT22;8241;48.786;9.250;2023-07-13T01:31:08;22.50;86.40
16267;DHT22;8241;48.786;9.250;2023-07-13T01:33:36;22.50;85.90
16267;DHT22;8241;48.786;9.250;2023-07-13T01:36:04;22.40;86.10
16267;DHT22;8241;48.786;9.250;2023-07-13T01:38:34;22.40;85.90
16267;DHT22;8241;48.786;9.250;2023-07-13T01:41:01;22.40;86.30
16267;DHT22;8241;48.786;9.250;2023-07-13T01:43:28;22.30;86.30
16267;DHT22;8241;48.786;9.250;2023-07-13T01:45:55;22.30;85.60
16267;DHT22;8241;48.786;9.250;2023-07-13T01:48:22;22.30;86.20
16267;DHT22;8241;48.786;9.250;2023-07-13T01:50:49;22.30;86.10
16267;DHT22;8241;48.786;9.250;2023-07-13T01:53:16;22.20;86.30
16267;DHT22;8241;48.786;9.250;2023-07-13T01:55:45;22.20;85.70
16267;DHT22;8241;48.786;9.250;2023-07-13T01:58:12;22.20;86.50
16267;DHT22;8241;48.786;9.250;2023-07-13T02:00:38;22.10;86.60
16267;DHT22;8241;48.786;9.250;2023-07-13T02:03:05;22.10;87.00
16267;DHT22;8241;48.786;9.250;2023-07-13T02:05:32;22.00;87.30
16267;DHT22;8241;48.786;9.250;2023-07-13T02:07:59;22.00;86.90
16267;DHT22;8241;48.786;9.250;2023-07-13T02:10:26;21.90;87.20
16267;DHT22;8241;48.786;9.250;2023-07-13T02:12:56;21.90;87.30
16267;DHT22;8241;48.786;9.250;2023-07-13T02:15:23;21.80;88.20
16267;DHT22;8241;48.786;9.250;2023-07-13T02:17:50;21.80;87.70
16267;DHT22;8241;48.786;9.250;2023-07-13T02:20:17;21.80;87.30
16267;DHT22;8241;48.786;9.250;2023-07-13T02:22:44;21.70;87.50
16267;DHT22;8241;48.786;9.250;2023-07-13T02:25:10;21.70;87.20
16267;DHT22;8241;48.786;9.250;2023-07-13T02:27:37;21.70;87.10
16267;DHT22;8241;48.786;9.250;2023-07-13T02:30:07;21.70;86.40
16267;DHT22;8241;48.786;9.250;2023-07-13T02:32:34;21.70;86.30
16267;DHT22;8241;48.786;9.250;2023-07-13T02:35:01;21.70;86.80
16267;DHT22;8241;48.786;9.250;2023-07-13T02:37:28;21.70;87.10
16267;DHT22;8241;48.786;9.250;2023-07-13T02:39:56;21.70;87.50
16267;DHT22;8241;48.786;9.250;2023-07-13T02:42:23;21.60;87.40
16267;DHT22;8241;48.786;9.250;2023-07-13T02:44:49;21.60;87.50
16267;DHT22;8241;48.786;9.250;2023-07-13T02:47:18;21.60;87.70
16267;DHT22;8241;48.786;9.250;2023-07-13T02:49:45;21.50;88.00
16267;DHT22;8241;48.786;9.250;2023-07-13T02:52:12;21.50;86.80
16267;DHT22;8241;48.786;9.250;2023-07-13T02:54:39;21.40;86.30
16267;DHT22;8241;48.786;9.250;2023-07-13T02:57:06;21.40;86.60
16267;DHT22;8241;48.786;9.250;2023-07-13T02:59:33;21.20;86.30
16267;DHT22;8241;48.786;9.250;2023-07-13T03:02:01;21.10;86.80
16267;DHT22;8241;48.786;9.250;2023-07-13T03:04:30;21.10;87.30
16267;DHT22;8241;48.786;9.250;2023-07-13T03:06:57;21.10;88.30
16267;DHT22;8241;48.786;9.250;2023-07-13T03:09:29;21.00;89.80
16267;DHT22;8241;48.786;9.250;2023-07-13T03:11:56;21.00;89.80
16267;DHT22;8241;48.786;9.250;2023-07-13T03:14:27;21.00;88.60
16267;DHT22;8241;48.786;9.250;2023-07-13T03:16:54;21.00;88.80
16267;DHT22;8241;48.786;9.250;2023-07-13T03:19:24;21.00;90.00
16267;DHT22;8241;48.786;9.250;2023-07-13T03:21:53;21.00;90.40
16267;DHT22;8241;48.786;9.250;2023-07-13T03:24:20;21.00;90.20
16267;DHT22;8241;48.786;9.250;2023-07-13T03:26:49;21.00;90.30
16267;DHT22;8241;48.786;9.250;2023-07-13T03:29:17;21.00;90.40
16267;DHT22;8241;48.786;9.250;2023-07-13T03:31:45;21.00;90.70
16267;DHT22;8241;48.786;9.250;2023-07-13T03:34:12;21.10;90.60
16267;DHT22;8241;48.786;9.250;2023-07-13T03:36:40;21.10;90.60
16267;DHT22;8241;48.786;9.250;2023-07-13T03:39:11;21.20;90.40
16267;DHT22;8241;48.786;9.250;2023-07-13T03:41:46;21.10;88.60
16267;DHT22;8241;48.786;9.250;2023-07-13T03:44:13;21.10;89.20
16267;DHT22;8241;48.786;9.250;2023-07-13T03:46:40;21.10;89.60
16267;DHT22;8241;48.786;9.250;2023-07-13T03:49:08;21.20;88.80
16267;DHT22;8241;48.786;9.250;2023-07-13T03:51:36;21.20;89.40
16267;DHT22;8241;48.786;9.250;2023-07-13T03:54:04;21.10;88.40
16267;DHT22;8241;48.786;9.250;2023-07-13T03:56:33;21.20;89.40
16267;DHT22;8241;48.786;9.250;2023-07-13T03:59:02;21.20;89.70
16267;DHT22;8241;48.786;9.250;2023-07-13T04:01:30;21.30;89.80
16267;DHT22;8241;48.786;9.250;2023-07-13T04:03:57;21.30;90.00
16267;DHT22;8241;48.786;9.250;2023-07-13T04:06:27;21.30;89.20
16267;DHT22;8241;48.786;9.250;2023-07-13T04:08:56;21.30;88.00
16267;DHT22;8241;48.786;9.250;2023-07-13T04:11:25;21.30;88.90
16267;DHT22;8241;48.786;9.250;2023-07-13T04:13:54;21.30;89.40
16267;DHT22;8241;48.786;9.250;2023-07-13T04:16:22;21.30;89.10
16267;DHT22;8241;48.786;9.250;2023-07-13T04:18:49;21.30;89.10
16267;DHT22;8241;48.786;9.250;2023-07-13T04:21:20;21.30;88.50
16267;DHT22;8241;48.786;9.250;2023-07-13T04:23:47;21.20;89.50
16267;DHT22;8241;48.786;9.250;2023-07-13T04:26:14;21.20;90.20
16267;DHT22;8241;48.786;9.250;2023-07-13T04:28:41;21.30;90.50
16267;DHT22;8241;48.786;9.250;2023-07-13T04:31:10;21.30;90.70
16267;DHT22;8241;48.786;9.250;2023-07-13T04:33:37;21.30;90.50
16267;DHT22;8241;48.786;9.250;2023-07-13T04:36:04;21.40;90.50
16267;DHT22;8241;48.786;9.250;2023-07-13T04:38:32;21.40;90.40
16267;DHT22;8241;48.786;9.250;2023-07-13T04:41:01;21.50;90.30
16267;DHT22;8241;48.786;9.250;2023-07-13T04:43:29;21.50;90.60
16267;DHT22;8241;48.786;9.250;2023-07-13T04:45:56;21.50;90.70
16267;DHT22;8241;48.786;9.250;2023-07-13T04:48:25;21.50;90.50
16267;DHT22;8241;48.786;9.250;2023-07-13T04:50:56;21.60;90.30
16267;DHT22;8241;48.786;9.250;2023-07-13T04:53:23;21.60;90.10
16267;DHT22;8241;48.786;9.250;2023-07-13T04:55:51;21.60;89.40
16267;DHT22;8241;48.786;9.250;2023-07-13T04:58:19;21.50;89.00
16267;DHT22;8241;48.786;9.250;2023-07-13T05:00:47;21.60;88.90
16267;DHT22;8241;48.786;9.250;2023-07-13T05:03:13;21.60;88.50
16267;DHT22;8241;48.786;9.250;2023-07-13T05:05:42;21.70;87.80
16267;DHT22;8241;48.786;9.250;2023-07-13T05:08:09;21.70;87.70
16267;DHT22;8241;48.786;9.250;2023-07-13T05:10:36;21.70;87.50
16267;DHT22;8241;48.786;9.250;2023-07-13T05:13:03;21.80;86.90
16267;DHT22;8241;48.786;9.250;2023-07-13T05:15:30;21.80;86.10
16267;DHT22;8241;48.786;9.250;2023-07-13T05:17:57;21.90;86.30
16267;DHT22;8241;48.786;9.250;2023-07-13T05:20:23;21.90;86.00
16267;DHT22;8241;48.786;9.250;2023-07-13T05:22:52;22.00;86.00
16267;DHT22;8241;48.786;9.250;2023-07-13T05:25:18;22.10;86.10
16267;DHT22;8241;48.786;9.250;2023-07-13T05:27:45;22.20;85.90
16267;DHT22;8241;48.786;9.250;2023-07-13T05:30:13;22.30;85.10
16267;DHT22;8241;48.786;9.250;2023-07-13T05:32:40;22.40;84.60
16267;DHT22;8241;48.786;9.250;2023-07-13T05:35:08;22.40;84.10
16267;DHT22;8241;48.786;9.250;2023-07-13T05:37:35;22.50;83.70
16267;DHT22;8241;48.786;9.250;2023-07-13T05:40:03;22.50;83.60
16267;DHT22;8241;48.786;9.250;2023-07-13T05:42:30;22.50;83.00
16267;DHT22;8241;48.786;9.250;2023-07-13T05:44:58;22.50;83.10
16267;DHT22;8241;48.786;9.250;2023-07-13T05:47:24;22.50;83.00
16267;DHT22;8241;48.786;9.250;2023-07-13T05:49:51;22.50;83.30
16267;DHT22;8241;48.786;9.250;2023-07-13T05:52:18;22.40;82.90
16267;DHT22;8241;48.786;9.250;2023-07-13T05:54:45;22.40;82.10
16267;DHT22;8241;48.786;9.250;2023-07-13T05:57:13;22.40;82.60
16267;DHT22;8241;48.786;9.250;2023-07-13T05:59:41;22.40;83.10
16267;DHT22;8241;48.786;9.250;2023-07-13T06:02:09;22.40;83.40
16267;DHT22;8241;48.786;9.250;2023-07-13T06:04:36;22.40;83.80
16267;DHT22;8241;48.786;9.250;2023-07-13T06:07:03;22.40;83.40
16267;DHT22;8241;48.786;9.250;2023-07-13T06:09:30;22.40;83.80
16267;DHT22;8241;48.786;9.250;2023-07-13T06:11:57;22.40;83.60
16267;DHT22;8241;48.786;9.250;2023-07-13T06:14:25;22.40;83.50
16267;DHT22;8241;48.786;9.250;2023-07-13T06:16:52;22.50;82.90
16267;DHT22;8241;48.786;9.250;2023-07-13T06:19:19;22.60;82.40
16267;DHT22;8241;48.786;9.250;2023-07-13T06:21:46;22.60;81.00
16267;DHT22;8241;48.786;9.250;2023-07-13T06:24:12;22.80;79.80
16267;DHT22;8241;48.786;9.250;2023-07-13T06:26:39;23.00;80.00
16267;DHT22;8241;48.786;9.250;2023-07-13T06:29:06;23.20;79.40
16267;DHT22;8241;48.786;9.250;2023-07-13T06:31:34;23.30;79.40
16267;DHT22;8241;48.786;9.250;2023-07-13T06:34:01;23.60;78.90
16267;DHT22;8241;48.786;9.250;2023-07-13T06:36:28;24.20;78.20
16267;DHT22;8241;48.786;9.250;2023-07-13T06:38:55;24.60;74.60
16267;DHT22;8241;48.786;9.250;2023-07-13T06:41:22;25.00;74.40
16267;DHT22;8241;48.786;9.250;2023-07-13T06:43:52;25.20;73.50
16267;DHT22;8241;48.786;9.250;2023-07-13T06:46:20;25.60;74.00
16267;DHT22;8241;48.786;9.250;2023-07-13T06:48:49;26.10;73.40
16267;DHT22;8241;48.786;9.250;2023-07-13T06:51:17;26.40;71.70
16267;DHT22;8241;48.786;9.250;2023-07-13T06:53:44;26.80;70.60
16267;DHT22;8241;48.786;9.250;2023-07-13T06:56:10;27.40;69.70
16267;DHT22;8241;48.786;9.250;2023-07-13T06:58:37;27.80;68.40
16267;DHT22;8241;48.786;9.250;2023-07-13T07:01:04;28.00;67.50
16267;DHT22;8241;48.786;9.250;2023-07-13T07:03:31;28.10;67.70
16267;DHT22;8241;48.786;9.250;2023-07-13T07:06:03;28.40;67.10
16267;DHT22;8241;48.786;9.250;2023-07-13T07:08:33;28.50;66.60
16267;DHT22;8241;48.786;9.250;2023-07-13T07:11:00;28.40;66.50
16267;DHT22;8241;48.786;9.250;2023-07-13T07:13:27;28.30;66.90
16267;DHT22;8241;48.786;9.250;2023-07-13T07:15:55;28.20;66.90
16267;DHT22;8241;48.786;9.250;2023-07-13T07:18:22;28.30;66.80
16267;DHT22;8241;48.786;9.250;2023-07-13T07:20:49;28.60;65.90
16267;DHT22;8241;48.786;9.250;2023-07-13T07:23:17;29.00;63.50
16267;DHT22;8241;48.786;9.250;2023-07-13T07:25:44;29.10;64.20
16267;DHT22;8241;48.786;9.250;2023-07-13T07:28:12;29.40;64.30
16267;DHT22;8241;48.786;9.250;2023-07-13T07:30:41;29.50;63.50
16267;DHT22;8241;48.786;9.250;2023-07-13T07:33:09;29.30;63.00
16267;DHT22;8241;48.786;9.250;2023-07-13T07:35:35;28.80;62.80
16267;DHT22;8241;48.786;9.250;2023-07-13T07:38:02;28.10;64.10
16267;DHT22;8241;48.786;9.250;2023-07-13T07:40:31;27.60;65.20
16267;DHT22;8241;48.786;9.250;2023-07-13T07:42:58;27.10;65.80
16267;DHT22;8241;48.786;9.250;2023-07-13T07:45:26;26.60;66.80
16267;DHT22;8241;48.786;9.250;2023-07-13T07:47:53;26.10;67.20
16267;DHT22;8241;48.786;9.250;2023-07-13T07:50:25;25.80;68.40
16267;DHT22;8241;48.786;9.250;2023-07-13T07:52:52;25.60;69.60
16267;DHT22;8241;48.786;9.250;2023-07-13T07:55:19;25.50;70.00
16267;DHT22;8241;48.786;9.250;2023-07-13T07:57:47;25.50;69.70
16267;DHT22;8241;48.786;9.250;2023-07-13T08:00:15;25.50;69.50
16267;DHT22;8241;48.786;9.250;2023-07-13T08:02:42;25.50;68.10
16267;DHT22;8241;48.786;9.250;2023-07-13T08:05:09;25.50;68.80
16267;DHT22;8241;48.786;9.250;2023-07-13T08:07:37;25.50;68.70
16267;DHT22;8241;48.786;9.250;2023-07-13T08:10:06;25.60;69.50
16267;DHT22;8241;48.786;9.250;2023-07-13T08:12:34;25.60;68.50
16267;DHT22;8241;48.786;9.250;2023-07-13T08:15:03;25.60;68.90
16267;DHT22;8241;48.786;9.250;2023-07-13T08:17:31;25.60;68.30
16267;DHT22;8241;48.786;9.250;2023-07-13T08:19:58;25.60;68.60
16267;DHT22;8241;48.786;9.250;2023-07-13T08:22:25;25.60;68.50
16267;DHT22;8241;48.786;9.250;2023-07-13T08:24:52;25.60;67.80
16267;DHT22;8241;48.786;9.250;2023-07-13T08:27:22;25.50;67.50
16267;DHT22;8241;48.786;9.250;2023-07-13T08:29:50;25.40;68.80
16267;DHT22;8241;48.786;9.250;2023-07-13T08:32:19;25.50;69.20
16267;DHT22;8241;48.786;9.250;2023-07-13T08:34:46;25.50;68.60
16267;DHT22;8241;48.786;9.250;2023-07-13T08:37:14;25.60;69.00
16267;DHT22;8241;48.786;9.250;2023-07-13T08:39:42;25.50;68.00
16267;DHT22;8241;48.786;9.250;2023-07-13T08:42:14;25.50;67.10
16267;DHT22;8241;48.786;9.250;2023-07-13T08:44:50;25.40;67.40
16267;DHT22;8241;48.786;9.250;2023-07-13T08:47:24;25.40;67.50
16267;DHT22;8241;48.786;9.250;2023-07-13T08:49:51;25.40;66.70
16267;DHT22;8241;48.786;9.250;2023-07-13T08:52:28;25.40;66.80
16267;DHT22;8241;48.786;9.250;2023-07-13T08:54:58;25.50;68.10
16267;DHT22;8241;48.786;9.250;2023-07-13T08:57:33;25.60;68.60
16267;DHT22;8241;48.786;9.250;2023-07-13T09:00:01;25.60;67.50
16267;DHT22;8241;48.786;9.250;2023-07-13T09:02:41;25.60;68.00
16267;DHT22;8241;48.786;9.250;2023-07-13T09:05:12;25.70;68.70
16267;DHT22;8241;48.786;9.250;2023-07-13T09:10:28;25.70;67.00
16267;DHT22;8241;48.786;9.250;2023-07-13T09:13:17;25.80;67.70
16267;DHT22;8241;48.786;9.250;2023-07-13T09:15:47;25.90;68.40
16267;DHT22;8241;48.786;9.250;2023-07-13T09:18:19;26.00;68.00
16267;DHT22;8241;48.786;9.250;2023-07-13T09:20:50;26.20;68.40
16267;DHT22;8241;48.786;9.250;2023-07-13T09:23:20;26.30;68.20
16267;DHT22;8241;48.786;9.250;2023-07-13T09:25:49;26.40;68.20
16267;DHT22;8241;48.786;9.250;2023-07-13T09:28:23;26.40;67.80
16267;DHT22;8241;48.786;9.250;2023-07-13T09:30:52;26.40;66.10
16267;DHT22;8241;48.786;9.250;2023-07-13T09:33:22;26.30;67.20
16267;DHT22;8241;48.786;9.250;2023-07-13T09:35:49;26.20;67.80
16267;DHT22;8241;48.786;9.250;2023-07-13T09:38:18;26.20;65.80
16267;DHT22;8241;48.786;9.250;2023-07-13T09:41:04;26.10;66.90
16267;DHT22;8241;48.786;9.250;2023-07-13T09:43:36;26.20;68.50
16267;DHT22;8241;48.786;9.250;2023-07-13T09:46:03;26.30;68.30
16267;DHT22;8241;48.786;9.250;2023-07-13T09:48:35;26.50;67.60
16267;DHT22;8241;48.786;9.250;2023-07-13T09:51:12;26.60;67.30
16267;DHT22;8241;48.786;9.250;2023-07-13T09:53:42;26.70;67.40
16267;DHT22;8241;48.786;9.250;2023-07-13T09:56:19;26.60;63.90
16267;DHT22;8241;48.786;9.250;2023-07-13T09:58:47;26.60;65.90
16267;DHT22;8241;48.786;9.250;2023-07-13T10:01:14;26.50;66.10
16267;DHT22;8241;48.786;9.250;2023-07-13T10:03:52;26.50;66.70
16267;DHT22;8241;48.786;9.250;2023-07-13T10:06:22;26.50;67.10
16267;DHT22;8241;48.786;9.250;2023-07-13T10:08:50;26.70;67.10
16267;DHT22;8241;48.786;9.250;2023-07-13T10:11:19;26.80;66.90
16267;DHT22;8241;48.786;9.250;2023-07-13T10:13:52;26.70;65.30
16267;DHT22;8241;48.786;9.250;2023-07-13T10:16:22;26.80;66.40
16267;DHT22;8241;48.786;9.250;2023-07-13T10:18:55;26.80;66.20
16267;DHT22;8241;48.786;9.250;2023-07-13T10:21:27;26.80;65.80
16267;DHT22;8241;48.786;9.250;2023-07-13T10:23:56;26.90;66.50
16267;DHT22;8241;48.786;9.250;2023-07-13T10:26:31;26.90;66.50
16267;DHT22;8241;48.786;9.250;2023-07-13T10:29:02;27.00;66.30
16267;DHT22;8241;48.786;9.250;2023-07-13T10:31:31;26.90;66.20
16267;DHT22;8241;48.786;9.250;2023-07-13T10:34:00;27.00;65.80
16267;DHT22;8241;48.786;9.250;2023-07-13T10:36:31;27.00;65.80
16267;DHT22;8241;48.786;9.250;2023-07-13T10:39:02;27.10;65.40
16267;DHT22;8241;48.786;9.250;2023-07-13T10:41:36;27.00;64.30
16267;DHT22;8241;48.786;9.250;2023-07-13T10:44:09;26.60;63.90
16267;DHT22;8241;48.786;9.250;2023-07-13T10:46:38;26.60;65.20
16267;DHT22;8241;48.786;9.250;2023-07-13T10:49:08;26.60;65.20
16267;DHT22;8241;48.786;9.250;2023-07-13T10:51:38;26.80;66.20
16267;DHT22;8241;48.786;9.250;2023-07-13T10:54:19;26.90;66.20
16267;DHT22;8241;48.786;9.250;2023-07-13T10:56:50;27.00;66.40
16267;DHT22;8241;48.786;9.250;2023-07-13T10:59:20;27.00;65.10
16267;DHT22;8241;48.786;9.250;2023-07-13T11:01:56;27.00;65.40
16267;DHT22;8241;48.786;9.250;2023-07-13T11:04:27;27.00;65.50
16267;DHT22;8241;48.786;9.250;2023-07-13T11:06:58;27.10;65.50
16267;DHT22;8241;48.786;9.250;2023-07-13T11:09:35;27.20;65.80
16267;DHT22;8241;48.786;9.250;2023-07-13T11:12:07;27.20;65.70
16267;DHT22;8241;48.786;9.250;2023-07-13T11:14:43;27.20;64.70
16267;DHT22;8241;48.786;9.250;2023-07-13T11:17:47;27.20;65.00
16267;DHT22;8241;48.786;9.250;2023-07-13T11:20:41;27.20;66.40
16267;DHT22;8241;48.786;9.250;2023-07-13T11:23:28;27.30;65.80
16267;DHT22;8241;48.786;9.250;2023-07-13T11:25:57;27.50;65.20
16267;DHT22;8241;48.786;9.250;2023-07-13T11:28:27;27.40;65.30
16267;DHT22;8241;48.786;9.250;2023-07-13T11:31:12;27.30;65.30
16267;DHT22;8241;48.786;9.250;2023-07-13T11:33:55;27.30;66.30
16267;DHT22;8241;48.786;9.250;2023-07-13T11:36:35;27.40;66.20
16267;DHT22;8241;48.786;9.250;2023-07-13T11:39:13;27.40;66.00
16267;DHT22;8241;48.786;9.250;2023-07-13T11:41:45;27.50;65.10
16267;DHT22;8241;48.786;9.250;2023-07-13T11:44:18;27.40;62.90
16267;DHT22;8241;48.786;9.250;2023-07-13T11:46:46;27.50;64.60
16267;DHT22;8241;48.786;9.250;2023-07-13T11:49:16;27.50;64.10
16267;DHT22;8241;48.786;9.250;2023-07-13T11:51:45;27.50;64.10
16267;DHT22;8241;48.786;9.250;2023-07-13T11:54:25;27.50;64.70
16267;DHT22;8241;48.786;9.250;2023-07-13T11:56:54;27.60;65.10
16267;DHT22;8241;48.786;9.250;2023-07-13T11:59:21;27.80;64.80
16267;DHT22;8241;48.786;9.250;2023-07-13T12:01:51;27.90;63.60
16267;DHT22;8241;48.786;9.250;2023-07-13T12:04:22;28.00;63.30
16267;DHT22;8241;48.786;9.250;2023-07-13T12:06:57;27.80;63.20
16267;DHT22;8241;48.786;9.250;2023-07-13T12:09:27;27.80;64.30
16267;DHT22;8241;48.786;9.250;2023-07-13T12:11:57;27.80;64.20
16267;DHT22;8241;48.786;9.250;2023-07-13T12:14:25;27.80;63.80
16267;DHT22;8241;48.786;9.250;2023-07-13T12:16:53;27.90;64.50
16267;DHT22;8241;48.786;9.250;2023-07-13T12:19:23;27.90;62.50
16267;DHT22;8241;48.786;9.250;2023-07-13T12:21:57;27.80;63.10
16267;DHT22;8241;48.786;9.250;2023-07-13T12:24:26;27.60;63.50
16267;DHT22;8241;48.786;9.250;2023-07-13T12:26:58;27.40;63.90
16267;DHT22;8241;48.786;9.250;2023-07-13T12:29:31;27.30;64.60
16267;DHT22;8241;48.786;9.250;2023-07-13T12:31:58;27.40;64.90
16267;DHT22;8241;48.786;9.250;2023-07-13T12:34:26;27.50;63.60
16267;DHT22;8241;48.786;9.250;2023-07-13T12:36:55;27.50;63.80
16267;DHT22;8241;48.786;9.250;2023-07-13T12:39:25;27.60;63.80
16267;DHT22;8241;48.786;9.250;2023-07-13T12:42:17;27.60;62.90
16267;DHT22;8241;48.786;9.250;2023-07-13T12:44:45;27.60;62.80
16267;DHT22;8241;48.786;9.250;2023-07-13T12:47:15;27.40;62.50
16267;DHT22;8241;48.786;9.250;2023-07-13T12:49:43;27.30;62.20
16267;DHT22;8241;48.786;9.250;2023-07-13T12:52:16;27.10;62.60
16267;DHT22;8241;48.786;9.250;2023-07-13T12:54:54;27.00;64.10
16267;DHT22;8241;48.786;9.250;2023-07-13T12:57:24;26.90;64.70
16267;DHT22;8241;48.786;9.250;2023-07-13T12:59:52;27.00;64.30
16267;DHT22;8241;48.786;9.250;2023-07-13T13:02:29;27.10;63.00
16267;DHT22;8241;48.786;9.250;2023-07-13T13:04:57;27.20;63.50
16267;DHT22;8241;48.786;9.250;2023-07-13T13:07:25;27.30;63.60
16267;DHT22;8241;48.786;9.250;2023-07-13T13:09:53;27.50;62.80
16267;DHT22;8241;48.786;9.250;2023-07-13T13:12:22;27.70;61.90
16267;DHT22;8241;48.786;9.250;2023-07-13T13:14:51;27.80;61.70
16267;DHT22;8241;48.786;9.250;2023-07-13T13:17:20;27.90;61.30
16267;DHT22;8241;48.786;9.250;2023-07-13T13:19:50;28.10;62.10
16267;DHT22;8241;48.786;9.250;2023-07-13T13:22:18;28.10;61.40
16267;DHT22;8241;48.786;9.250;2023-07-13T13:24:46;28.20;61.10
16267;DHT22;8241;48.786;9.250;2023-07-13T13:27:19;28.20;61.40
16267;DHT22;8241;48.786;9.250;2023-07-13T13:29:49;28.30;61.30
16267;DHT22;8241;48.786;9.250;2023-07-13T13:32:17;28.30;60.80
16267;DHT22;8241;48.786;9.250;2023-07-13T13:34:45;28.40;61.50
16267;DHT22;8241;48.786;9.250;2023-07-13T13:37:18;28.50;59.40
16267;DHT22;8241;48.786;9.250;2023-07-13T13:39:46;28.60;61.70
16267;DHT22;8241;48.786;9.250;2023-07-13T13:42:13;28.80;62.10
16267;DHT22;8241;48.786;9.250;2023-07-13T13:44:41;29.00;61.50
16267;DHT22;8241;48.786;9.250;2023-07-13T13:47:21;29.00;60.40
16267;DHT22;8241;48.786;9.250;2023-07-13T13:49:50;29.20;59.30
16267;DHT22;8241;48.786;9.250;2023-07-13T13:52:17;29.50;59.70
16267;DHT22;8241;48.786;9.250;2023-07-13T13:54:44;30.20;59.10
16267;DHT22;8241;48.786;9.250;2023-07-13T13:57:11;30.70;57.00
16267;DHT22;8241;48.786;9.250;2023-07-13T13:59:38;31.40;57.00
16267;DHT22;8241;48.786;9.250;2023-07-13T14:02:22;31.90;55.50
16267;DHT22;8241;48.786;9.250;2023-07-13T14:04:54;32.10;55.10
16267;DHT22;8241;48.786;9.250;2023-07-13T14:07:21;31.80;55.20
16267;DHT22;8241;48.786;9.250;2023-07-13T14:09:48;31.70;55.50
16267;DHT22;8241;48.786;9.250;2023-07-13T14:12:15;31.30;55.90
16267;DHT22;8241;48.786;9.250;2023-07-13T14:14:42;30.70;56.20
16267;DHT22;8241;48.786;9.250;2023-07-13T14:17:19;30.60;57.00
16267;DHT22;8241;48.786;9.250;2023-07-13T14:19:47;30.60;56.90
16267;DHT22;8241;48.786;9.250;2023-07-13T14:22:17;30.40;56.90
16267;DHT22;8241;48.786;9.250;2023-07-13T14:24:44;30.40;56.60
16267;DHT22;8241;48.786;9.250;2023-07-13T14:27:11;30.40;56.70
16267;DHT22;8241;48.786;9.250;2023-07-13T14:29:39;30.10;57.00
16267;DHT22;8241;48.786;9.250;2023-07-13T14:32:10;30.00;57.10
16267;DHT22;8241;48.786;9.250;2023-07-13T14:34:39;29.80;58.10
16267;DHT22;8241;48.786;9.250;2023-07-13T14:37:08;29.80;57.70
16267;DHT22;8241;48.786;9.250;2023-07-13T14:39:38;29.70;58.30
16267;DHT22;8241;48.786;9.250;2023-07-13T14:42:08;29.60;58.50
16267;DHT22;8241;48.786;9.250;2023-07-13T14:44:35;29.40;58.40
16267;DHT22;8241;48.786;9.250;2023-07-13T14:47:04;29.20;58.20
16267;DHT22;8241;48.786;9.250;2023-07-13T14:49:35;29.10;57.70
16267;DHT22;8241;48.786;9.250;2023-07-13T14:52:12;28.90;58.00
16267;DHT22;8241;48.786;9.250;2023-07-13T14:54:47;28.60;58.40
16267;DHT22;8241;48.786;9.250;2023-07-13T14:57:15;28.50;58.80
16267;DHT22;8241;48.786;9.250;2023-07-13T14:59:44;28.50;58.60
16267;DHT22;8241;48.786;9.250;2023-07-13T15:02:16;28.50;59.30
16267;DHT22;8241;48.786;9.250;2023-07-13T15:04:44;28.60;59.20
16267;DHT22;8241;48.786;9.250;2023-07-13T15:07:13;28.80;59.30
16267;DHT22;8241;48.786;9.250;2023-07-13T15:09:41;28.90;58.90
16267;DHT22;8241;48.786;9.250;2023-07-13T15:12:08;28.90;59.50
16267;DHT22;8241;48.786;9.250;2023-07-13T15:14:35;29.00;59.40
16267;DHT22;8241;48.786;9.250;2023-07-13T15:17:03;29.00;59.10
16267;DHT22;8241;48.786;9.250;2023-07-13T15:19:31;29.00;59.30
16267;DHT22;8241;48.786;9.250;2023-07-13T15:21:58;29.00;59.60
16267;DHT22;8241;48.786;9.250;2023-07-13T15:24:27;29.10;59.60
16267;DHT22;8241;48.786;9.250;2023-07-13T15:26:54;29.10;59.60
16267;DHT22;8241;48.786;9.250;2023-07-13T15:29:22;29.00;59.20
16267;DHT22;8241;48.786;9.250;2023-07-13T15:31:48;29.00;59.30
16267;DHT22;8241;48.786;9.250;2023-07-13T15:34:20;29.00;59.60
16267;DHT22;8241;48.786;9.250;2023-07-13T15:36:49;29.00;59.00
16267;DHT22;8241;48.786;9.250;2023-07-13T15:39:16;29.00;58.90
16267;DHT22;8241;48.786;9.250;2023-07-13T15:41:46;29.00;59.30
16267;DHT22;8241;48.786;9.250;2023-07-13T15:44:23;29.00;59.50
16267;DHT22;8241;48.786;9.250;2023-07-13T15:46:50;29.00;59.60
16267;DHT22;8241;48.786;9.250;2023-07-13T15:49:17;28.90;58.90
16267;DHT22;8241;48.786;9.250;2023-07-13T15:51:44;28.80;59.40
16267;DHT22;8241;48.786;9.250;2023-07-13T15:54:14;28.70;59.20
16267;DHT22;8241;48.786;9.250;2023-07-13T15:56:42;28.70;59.20
16267;DHT22;8241;48.786;9.250;2023-07-13T15:59:12;28.70;59.40
16267;DHT22;8241;48.786;9.250;2023-07-13T16:01:40;28.70;59.10